createdAt,value
2017-02-11T00:00:52.615Z,1012.97
2017-02-11T00:01:53.285Z,1012.91
2017-02-11T00:02:53.665Z,1012.94
2017-02-11T00:03:54.196Z,1012.89
2017-02-11T00:04:54.726Z,1012.89
2017-02-11T00:05:55.252Z,1012.88
2017-02-11T00:06:55.786Z,1012.85
2017-02-11T00:07:56.312Z,1012.92
2017-02-11T00:08:56.853Z,1012.88
2017-02-11T00:09:57.383Z,1012.83
2017-02-11T00:10:58.054Z,1012.80
2017-02-11T00:11:58.589Z,1012.84
2017-02-11T00:12:58.973Z,1012.89
2017-02-11T00:13:59.509Z,1012.88
2017-02-11T00:15:00.330Z,1012.88
2017-02-11T00:16:00.567Z,1012.88
2017-02-11T00:17:01.090Z,1012.86
2017-02-11T00:18:01.621Z,1012.88
2017-02-11T00:19:02.295Z,1012.85
2017-02-11T00:20:02.676Z,1012.89
2017-02-11T00:21:03.212Z,1012.90
2017-02-11T00:22:03.738Z,1012.88
2017-02-11T00:23:04.268Z,1012.80
2017-02-11T00:24:04.795Z,1012.79
2017-02-11T00:25:05.329Z,1012.77
2017-02-11T00:26:06.005Z,1012.82
2017-02-11T00:27:06.392Z,1012.82
2017-02-11T00:28:07.072Z,1012.85
2017-02-11T00:29:07.460Z,1012.87
2017-02-11T00:30:07.996Z,1012.87
2017-02-11T00:31:08.539Z,1012.93
2017-02-11T00:32:09.066Z,1012.94
2017-02-11T00:33:09.736Z,1012.88
2017-02-11T00:34:10.128Z,1012.81
2017-02-11T00:35:10.655Z,1012.83
2017-02-11T00:36:11.193Z,1012.83
2017-02-11T00:37:11.718Z,1012.80
2017-02-11T00:38:12.410Z,1012.73
2017-02-11T00:39:12.782Z,1012.74
2017-02-11T00:40:13.307Z,1012.70
2017-02-11T00:41:13.840Z,1012.67
2017-02-11T00:42:14.376Z,1012.76
2017-02-11T00:43:14.908Z,1012.78
2017-02-11T00:44:15.444Z,1012.67
2017-02-11T00:45:16.116Z,1012.75
2017-02-11T00:46:16.506Z,1012.72
2017-02-11T00:47:17.032Z,1012.70
2017-02-11T00:48:17.567Z,1012.71
2017-02-11T00:49:18.238Z,1012.66
2017-02-11T00:50:18.622Z,1012.61
2017-02-11T00:51:19.149Z,1012.58
2017-02-11T00:52:19.831Z,1012.54
2017-02-11T00:53:20.212Z,1012.51
2017-02-11T00:54:20.892Z,1012.53
2017-02-11T00:55:21.277Z,1012.62
2017-02-11T00:56:21.799Z,1012.61
2017-02-11T00:57:22.334Z,1012.59
2017-02-11T00:58:22.864Z,1012.58
2017-02-11T00:59:23.393Z,1012.58
2017-02-11T01:00:24.075Z,1012.62
2017-02-11T01:01:24.452Z,1012.59
2017-02-11T01:02:24.979Z,1012.63
2017-02-11T01:03:25.515Z,1012.70
2017-02-11T01:04:26.077Z,1012.64
2017-02-11T01:05:26.574Z,1012.67
2017-02-11T01:06:27.133Z,1012.65
2017-02-11T01:07:27.635Z,1012.61
2017-02-11T01:08:28.161Z,1012.61
2017-02-11T01:09:28.695Z,1012.56
2017-02-11T01:10:29.377Z,1012.56
2017-02-11T01:11:29.764Z,1012.56
2017-02-11T01:12:30.298Z,1012.61
2017-02-11T01:13:30.827Z,1012.64
2017-02-11T01:14:31.357Z,1012.65
2017-02-11T01:15:31.906Z,1012.63
2017-02-11T01:16:32.571Z,1012.63
2017-02-11T01:17:32.951Z,1012.70
2017-02-11T01:18:33.633Z,1012.66
2017-02-11T01:19:34.014Z,1012.68
2017-02-11T01:20:34.544Z,1012.65
2017-02-11T01:21:35.076Z,1012.63
2017-02-11T01:22:35.600Z,1012.63
2017-02-11T01:23:36.134Z,1012.66
2017-02-11T01:24:36.808Z,1012.69
2017-02-11T01:25:37.195Z,1012.69
2017-02-11T01:26:37.726Z,1012.72
2017-02-11T01:27:38.254Z,1012.67
2017-02-11T01:28:38.785Z,1012.68
2017-02-11T01:29:39.311Z,1012.67
2017-02-11T01:30:39.845Z,1012.60
2017-02-11T01:31:40.374Z,1012.61
2017-02-11T01:32:40.909Z,1012.62
2017-02-11T01:33:41.454Z,1012.58
2017-02-11T01:34:41.987Z,1012.62
2017-02-11T01:35:42.499Z,1012.63
2017-02-11T01:36:43.030Z,1012.59
2017-02-11T01:37:43.706Z,1012.57
2017-02-11T01:38:44.086Z,1012.55
2017-02-11T01:39:44.621Z,1012.59
2017-02-11T01:40:45.300Z,1012.52
2017-02-11T01:41:45.689Z,1012.52
2017-02-11T01:42:46.214Z,1012.51
2017-02-11T01:43:46.889Z,1012.54
2017-02-11T01:44:47.422Z,1012.57
2017-02-11T01:45:47.948Z,1012.52
2017-02-11T01:46:48.484Z,1012.50
2017-02-11T01:47:48.863Z,1012.49
2017-02-11T01:48:49.396Z,1012.51
2017-02-11T01:49:49.923Z,1012.50
2017-02-11T01:50:50.476Z,1012.47
2017-02-11T01:51:50.984Z,1012.53
2017-02-11T01:52:51.516Z,1012.56
2017-02-11T01:53:52.054Z,1012.52
2017-02-11T01:54:52.585Z,1012.52
2017-02-11T01:55:53.122Z,1012.54
2017-02-11T01:56:53.686Z,1012.54
2017-02-11T01:57:54.188Z,1012.46
2017-02-11T01:58:54.718Z,1012.51
2017-02-11T01:59:55.392Z,1012.49
2017-02-11T02:00:55.778Z,1012.49
2017-02-11T02:01:56.307Z,1012.55
2017-02-11T02:02:56.834Z,1012.48
2017-02-11T02:03:57.514Z,1012.50
2017-02-11T02:04:57.901Z,1012.57
2017-02-11T02:05:58.430Z,1012.51
2017-02-11T02:06:58.995Z,1012.55
2017-02-11T02:07:59.494Z,1012.55
2017-02-11T02:09:00.021Z,1012.55
2017-02-11T02:10:00.703Z,1012.50
2017-02-11T02:11:01.232Z,1012.56
2017-02-11T02:12:01.617Z,1012.58
2017-02-11T02:13:02.339Z,1012.55
2017-02-11T02:14:02.717Z,1012.50
2017-02-11T02:15:03.206Z,1012.48
2017-02-11T02:16:03.739Z,1012.54
2017-02-11T02:17:04.271Z,1012.55
2017-02-11T02:18:04.803Z,1012.54
2017-02-11T02:19:05.336Z,1012.60
2017-02-11T02:20:05.862Z,1012.57
2017-02-11T02:21:06.392Z,1012.53
2017-02-11T02:22:07.067Z,1012.55
2017-02-11T02:23:07.450Z,1012.55
2017-02-11T02:24:07.985Z,1012.54
2017-02-11T02:25:08.513Z,1012.59
2017-02-11T02:26:09.044Z,1012.57
2017-02-11T02:27:09.576Z,1012.60
2017-02-11T02:28:10.106Z,1012.56
2017-02-11T02:29:10.788Z,1012.52
2017-02-11T02:30:11.165Z,1012.57
2017-02-11T02:31:11.697Z,1012.54
2017-02-11T02:32:12.375Z,1012.54
2017-02-11T02:33:12.905Z,1012.51
2017-02-11T02:34:13.288Z,1012.51
2017-02-11T02:35:13.822Z,1012.47
2017-02-11T02:36:14.364Z,1012.56
2017-02-11T02:37:15.038Z,1012.45
2017-02-11T02:38:15.423Z,1012.51
2017-02-11T02:39:16.103Z,1012.48
2017-02-11T02:40:16.497Z,1012.56
2017-02-11T02:41:17.019Z,1012.52
2017-02-11T02:42:17.698Z,1012.54
2017-02-11T02:43:18.087Z,1012.49
2017-02-11T02:44:18.615Z,1012.56
2017-02-11T02:45:19.146Z,1012.50
2017-02-11T02:46:19.675Z,1012.46
2017-02-11T02:47:20.209Z,1012.51
2017-02-11T02:48:20.736Z,1012.43
2017-02-11T02:49:21.262Z,1012.47
2017-02-11T02:50:21.797Z,1012.44
2017-02-11T02:51:22.478Z,1012.41
2017-02-11T02:52:23.046Z,1012.36
2017-02-11T02:53:23.386Z,1012.40
2017-02-11T02:54:23.926Z,1012.39
2017-02-11T02:55:24.448Z,1012.39
2017-02-11T02:56:24.983Z,1012.36
2017-02-11T02:57:25.512Z,1012.40
2017-02-11T02:58:26.049Z,1012.39
2017-02-11T02:59:26.575Z,1012.41
2017-02-11T03:00:27.112Z,1012.43
2017-02-11T03:01:27.641Z,1012.39
2017-02-11T03:02:28.170Z,1012.34
2017-02-11T03:03:28.716Z,1012.37
2017-02-11T03:04:29.239Z,1012.35
2017-02-11T03:05:29.765Z,1012.33
2017-02-11T03:06:30.293Z,1012.35
2017-02-11T03:07:30.974Z,1012.33
2017-02-11T03:08:31.353Z,1012.31
2017-02-11T03:09:31.886Z,1012.31
2017-02-11T03:10:32.417Z,1012.28
2017-02-11T03:11:32.951Z,1012.26
2017-02-11T03:12:33.481Z,1012.34
2017-02-11T03:13:34.007Z,1012.29
2017-02-11T03:14:34.543Z,1012.30
2017-02-11T03:15:35.070Z,1012.33
2017-02-11T03:16:35.611Z,1012.29
2017-02-11T03:17:36.143Z,1012.28
2017-02-11T03:18:36.679Z,1012.33
2017-02-11T03:19:37.363Z,1012.29
2017-02-11T03:20:37.742Z,1012.31
2017-02-11T03:21:38.424Z,1012.29
2017-02-11T03:22:38.803Z,1012.28
2017-02-11T03:23:39.481Z,1012.28
2017-02-11T03:24:39.863Z,1012.27
2017-02-11T03:25:40.398Z,1012.24
2017-02-11T03:26:41.069Z,1012.27
2017-02-11T03:27:41.455Z,1012.29
2017-02-11T03:28:42.133Z,1012.33
2017-02-11T03:29:42.518Z,1012.29
2017-02-11T03:30:43.050Z,1012.28
2017-02-11T03:31:43.877Z,1012.29
2017-02-11T03:32:44.119Z,1012.29
2017-02-11T03:33:44.796Z,1012.27
2017-02-11T03:34:45.176Z,1012.30
2017-02-11T03:35:45.706Z,1012.31
2017-02-11T03:36:46.238Z,1012.21
2017-02-11T03:37:46.765Z,1012.27
2017-02-11T03:38:47.299Z,1012.33
2017-02-11T03:39:47.895Z,1012.32
2017-02-11T03:40:48.385Z,1012.30
2017-02-11T03:41:48.893Z,1012.30
2017-02-11T03:42:49.571Z,1012.36
2017-02-11T03:43:49.986Z,1012.35
2017-02-11T03:44:50.489Z,1012.33
2017-02-11T03:45:51.018Z,1012.32
2017-02-11T03:46:51.548Z,1012.27
2017-02-11T03:47:52.231Z,1012.30
2017-02-11T03:48:52.615Z,1012.31
2017-02-11T03:49:53.292Z,1012.23
2017-02-11T03:50:53.699Z,1012.30
2017-02-11T03:51:54.206Z,1012.29
2017-02-11T03:52:54.740Z,1012.30
2017-02-11T03:53:55.270Z,1012.26
2017-02-11T03:54:55.833Z,1012.32
2017-02-11T03:55:56.346Z,1012.27
2017-02-11T03:56:56.868Z,1012.40
2017-02-11T03:57:57.398Z,1012.33
2017-02-11T03:58:57.931Z,1012.37
2017-02-11T03:59:58.467Z,1012.37
2017-02-11T04:00:59.017Z,1012.31
2017-02-11T04:01:59.563Z,1012.28
2017-02-11T04:03:00.067Z,1012.29
2017-02-11T04:04:00.606Z,1012.32
2017-02-11T04:05:01.135Z,1012.30
2017-02-11T04:06:01.662Z,1012.29
2017-02-11T04:07:02.196Z,1012.31
2017-02-11T04:08:02.721Z,1012.27
2017-02-11T04:09:03.256Z,1012.26
2017-02-11T04:10:03.788Z,1012.26
2017-02-11T04:11:04.322Z,1012.22
2017-02-11T04:12:04.994Z,1012.21
2017-02-11T04:13:05.373Z,1012.18
2017-02-11T04:14:05.907Z,1012.19
2017-02-11T04:15:06.434Z,1012.22
2017-02-11T04:16:06.965Z,1012.23
2017-02-11T04:17:07.498Z,1012.25
2017-02-11T04:18:08.022Z,1012.27
2017-02-11T04:19:08.554Z,1012.23
2017-02-11T04:20:09.236Z,1012.22
2017-02-11T04:21:09.617Z,1012.22
2017-02-11T04:22:10.145Z,1012.31
2017-02-11T04:23:10.674Z,1012.30
2017-02-11T04:24:11.204Z,1012.28
2017-02-11T04:25:11.731Z,1012.25
2017-02-11T04:26:12.260Z,1012.26
2017-02-11T04:27:12.794Z,1012.26
2017-02-11T04:28:13.475Z,1012.31
2017-02-11T04:29:13.855Z,1012.34
2017-02-11T04:30:14.380Z,1012.33
2017-02-11T04:31:14.913Z,1012.35
2017-02-11T04:32:15.446Z,1012.33
2017-02-11T04:33:16.119Z,1012.36
2017-02-11T04:34:16.501Z,1012.40
2017-02-11T04:35:17.038Z,1012.38
2017-02-11T04:36:17.565Z,1012.37
2017-02-11T04:37:18.101Z,1012.38
2017-02-11T04:38:18.628Z,1012.35
2017-02-11T04:39:19.184Z,1012.37
2017-02-11T04:40:19.844Z,1012.39
2017-02-11T04:41:20.230Z,1012.44
2017-02-11T04:42:20.763Z,1012.42
2017-02-11T04:43:21.302Z,1012.43
2017-02-11T04:44:21.986Z,1012.43
2017-02-11T04:45:22.368Z,1012.37
2017-02-11T04:46:23.045Z,1012.39
2017-02-11T04:47:23.426Z,1012.36
2017-02-11T04:48:23.960Z,1012.37
2017-02-11T04:49:24.489Z,1012.44
2017-02-11T04:50:25.022Z,1012.47
2017-02-11T04:51:25.698Z,1012.37
2017-02-11T04:52:26.082Z,1012.38
2017-02-11T04:53:26.613Z,1012.40
2017-02-11T04:54:27.140Z,1012.37
2017-02-11T04:55:27.670Z,1012.37
2017-02-11T04:56:28.201Z,1012.40
2017-02-11T04:57:28.732Z,1012.38
2017-02-11T04:58:29.409Z,1012.35
2017-02-11T04:59:29.792Z,1012.33
2017-02-11T05:00:30.320Z,1012.37
2017-02-11T05:01:30.999Z,1012.33
2017-02-11T05:02:31.385Z,1012.36
2017-02-11T05:03:31.918Z,1012.32
2017-02-11T05:04:32.445Z,1012.37
2017-02-11T05:05:33.126Z,1012.32
2017-02-11T05:06:33.676Z,1012.32
2017-02-11T05:07:34.054Z,1012.31
2017-02-11T05:08:34.722Z,1012.31
2017-02-11T05:09:35.118Z,1012.27
2017-02-11T05:10:35.641Z,1012.32
2017-02-11T05:11:36.168Z,1012.36
2017-02-11T05:12:36.845Z,1012.28
2017-02-11T05:13:37.378Z,1012.30
2017-02-11T05:14:37.763Z,1012.24
2017-02-11T05:15:38.293Z,1012.29
2017-02-11T05:16:38.855Z,1012.26
2017-02-11T05:17:39.351Z,1012.30
2017-02-11T05:18:40.030Z,1012.36
2017-02-11T05:19:40.413Z,1012.26
2017-02-11T05:20:40.937Z,1012.28
2017-02-11T05:21:41.469Z,1012.26
2017-02-11T05:22:42.002Z,1012.27
2017-02-11T05:23:42.540Z,1012.28
2017-02-11T05:24:43.075Z,1012.28
2017-02-11T05:25:43.616Z,1012.34
2017-02-11T05:26:44.145Z,1012.31
2017-02-11T05:27:44.679Z,1012.32
2017-02-11T05:28:45.209Z,1012.38
2017-02-11T05:29:45.745Z,1012.36
2017-02-11T05:30:46.494Z,1012.29
2017-02-11T05:31:46.824Z,1012.31
2017-02-11T05:32:47.344Z,1012.37
2017-02-11T05:33:47.865Z,1012.32
2017-02-11T05:34:48.392Z,1012.35
2017-02-11T05:35:48.926Z,1012.37
2017-02-11T05:36:49.456Z,1012.31
2017-02-11T05:37:49.991Z,1012.36
2017-02-11T05:38:50.516Z,1012.33
2017-02-11T05:39:51.051Z,1012.30
2017-02-11T05:40:51.576Z,1012.34
2017-02-11T05:41:52.111Z,1012.32
2017-02-11T05:42:52.675Z,1012.33
2017-02-11T05:43:53.171Z,1012.30
2017-02-11T05:44:53.698Z,1012.35
2017-02-11T05:45:54.232Z,1012.34
2017-02-11T05:46:54.759Z,1012.31
2017-02-11T05:47:55.298Z,1012.28
2017-02-11T05:48:55.974Z,1012.30
2017-02-11T05:49:56.354Z,1012.20
2017-02-11T05:50:56.884Z,1012.25
2017-02-11T05:51:57.561Z,1012.28
2017-02-11T05:52:58.095Z,1012.29
2017-02-11T05:53:58.479Z,1012.26
2017-02-11T05:54:59.004Z,1012.31
2017-02-11T05:55:59.535Z,1012.29
2017-02-11T05:57:00.079Z,1012.25
2017-02-11T05:58:00.598Z,1012.34
2017-02-11T05:59:01.130Z,1012.29
2017-02-11T06:00:01.662Z,1012.26
2017-02-11T06:01:02.192Z,1012.28
2017-02-11T06:02:02.717Z,1012.33
2017-02-11T06:03:03.251Z,1012.35
2017-02-11T06:04:03.927Z,1012.32
2017-02-11T06:05:04.459Z,1012.35
2017-02-11T06:06:04.849Z,1012.41
2017-02-11T06:07:05.381Z,1012.36
2017-02-11T06:08:05.921Z,1012.35
2017-02-11T06:09:06.599Z,1012.32
2017-02-11T06:10:06.986Z,1012.31
2017-02-11T06:11:07.666Z,1012.39
2017-02-11T06:12:08.044Z,1012.34
2017-02-11T06:13:08.575Z,1012.37
2017-02-11T06:14:09.108Z,1012.35
2017-02-11T06:15:09.637Z,1012.39
2017-02-11T06:16:10.171Z,1012.40
2017-02-11T06:17:10.845Z,1012.37
2017-02-11T06:18:11.230Z,1012.37
2017-02-11T06:19:11.761Z,1012.32
2017-02-11T06:20:12.288Z,1012.39
2017-02-11T06:21:12.814Z,1012.35
2017-02-11T06:22:13.354Z,1012.33
2017-02-11T06:23:13.877Z,1012.36
2017-02-11T06:24:14.413Z,1012.32
2017-02-11T06:25:15.089Z,1012.39
2017-02-11T06:26:15.476Z,1012.38
2017-02-11T06:27:16.002Z,1012.36
2017-02-11T06:28:16.531Z,1012.37
2017-02-11T06:29:17.064Z,1012.41
2017-02-11T06:30:17.593Z,1012.33
2017-02-11T06:31:18.127Z,1012.37
2017-02-11T06:32:18.657Z,1012.35
2017-02-11T06:33:19.337Z,1012.41
2017-02-11T06:34:19.715Z,1012.40
2017-02-11T06:35:20.397Z,1012.35
2017-02-11T06:36:20.778Z,1012.45
2017-02-11T06:37:21.312Z,1012.34
2017-02-11T06:38:21.839Z,1012.42
2017-02-11T06:39:22.370Z,1012.35
2017-02-11T06:40:22.899Z,1012.43
2017-02-11T06:41:23.440Z,1012.42
2017-02-11T06:42:24.105Z,1012.43
2017-02-11T06:43:24.640Z,1012.49
2017-02-11T06:44:25.024Z,1012.47
2017-02-11T06:45:25.700Z,1012.50
2017-02-11T06:46:26.092Z,1012.40
2017-02-11T06:47:26.646Z,1012.47
2017-02-11T06:48:27.156Z,1012.41
2017-02-11T06:49:27.690Z,1012.38
2017-02-11T06:50:28.229Z,1012.41
2017-02-11T06:51:29.053Z,1012.43
2017-02-11T06:52:29.434Z,1012.42
2017-02-11T06:53:29.817Z,1012.44
2017-02-11T06:54:30.349Z,1012.43
2017-02-11T06:55:30.879Z,1012.47
2017-02-11T06:56:31.417Z,1012.47
2017-02-11T06:57:32.111Z,1012.48
2017-02-11T06:58:32.476Z,1012.50
2017-02-11T06:59:33.037Z,1012.49
2017-02-11T07:00:33.536Z,1012.60
2017-02-11T07:01:34.218Z,1012.55
2017-02-11T07:02:34.599Z,1012.57
2017-02-11T07:03:35.127Z,1012.52
2017-02-11T07:04:35.660Z,1012.59
2017-02-11T07:05:36.339Z,1012.50
2017-02-11T07:06:36.867Z,1012.63
2017-02-11T07:07:37.400Z,1012.58
2017-02-11T07:08:37.927Z,1012.63
2017-02-11T07:09:38.459Z,1012.67
2017-02-11T07:10:38.845Z,1012.62
2017-02-11T07:11:39.375Z,1012.61
2017-02-11T07:12:39.902Z,1012.66
2017-02-11T07:13:40.440Z,1012.64
2017-02-11T07:14:40.979Z,1012.68
2017-02-11T07:15:41.508Z,1012.65
2017-02-11T07:16:42.033Z,1012.66
2017-02-11T07:17:42.558Z,1012.69
2017-02-11T07:18:43.093Z,1012.67
2017-02-11T07:19:43.626Z,1012.69
2017-02-11T07:20:44.157Z,1012.65
2017-02-11T07:21:44.836Z,1012.71
2017-02-11T07:22:45.214Z,1012.68
2017-02-11T07:23:45.893Z,1012.63
2017-02-11T07:24:46.273Z,1012.66
2017-02-11T07:25:46.805Z,1012.64
2017-02-11T07:26:47.335Z,1012.66
2017-02-11T07:27:47.869Z,1012.61
2017-02-11T07:28:48.401Z,1012.66
2017-02-11T07:29:48.936Z,1012.67
2017-02-11T07:30:49.640Z,1012.69
2017-02-11T07:31:50.004Z,1012.68
2017-02-11T07:32:50.540Z,1012.74
2017-02-11T07:33:51.064Z,1012.72
2017-02-11T07:34:51.598Z,1012.68
2017-02-11T07:35:52.285Z,1012.68
2017-02-11T07:36:52.660Z,1012.68
2017-02-11T07:37:53.196Z,1012.75
2017-02-11T07:38:53.869Z,1012.72
2017-02-11T07:39:54.249Z,1012.73
2017-02-11T07:40:54.781Z,1012.73
2017-02-11T07:41:55.310Z,1012.80
2017-02-11T07:42:55.852Z,1012.85
2017-02-11T07:43:56.373Z,1012.85
2017-02-11T07:44:56.908Z,1012.78
2017-02-11T07:45:57.439Z,1012.78
2017-02-11T07:46:57.972Z,1012.81
2017-02-11T07:47:58.504Z,1012.81
2017-02-11T07:48:59.036Z,1012.73
2017-02-11T07:49:59.568Z,1012.79
2017-02-11T07:51:00.245Z,1012.81
2017-02-11T07:52:00.629Z,1012.83
2017-02-11T07:53:01.160Z,1012.81
2017-02-11T07:54:01.689Z,1012.79
2017-02-11T07:55:02.222Z,1012.76
2017-02-11T07:56:02.899Z,1012.72
2017-02-11T07:57:03.432Z,1012.74
2017-02-11T07:58:03.849Z,1012.73
2017-02-11T07:59:04.347Z,1012.70
2017-02-11T08:00:05.030Z,1012.67
2017-02-11T08:01:05.412Z,1012.68
2017-02-11T08:02:05.940Z,1012.74
2017-02-11T08:03:06.476Z,1012.70
2017-02-11T08:04:07.156Z,1012.79
2017-02-11T08:05:07.539Z,1012.72
2017-02-11T08:06:08.069Z,1012.74
2017-02-11T08:07:08.615Z,1012.70
2017-02-11T08:08:09.286Z,1012.72
2017-02-11T08:09:09.665Z,1012.61
2017-02-11T08:10:10.367Z,1012.70
2017-02-11T08:11:10.730Z,1012.71
2017-02-11T08:12:11.262Z,1012.62
2017-02-11T08:13:11.801Z,1012.71
2017-02-11T08:14:12.485Z,1012.66
2017-02-11T08:15:12.872Z,1012.60
2017-02-11T08:16:13.422Z,1012.61
2017-02-11T08:17:13.929Z,1012.60
2017-02-11T08:18:14.613Z,1012.59
2017-02-11T08:19:14.996Z,1012.57
2017-02-11T08:20:15.524Z,1012.53
2017-02-11T08:21:16.056Z,1012.55
2017-02-11T08:22:16.620Z,1012.53
2017-02-11T08:23:17.117Z,1012.55
2017-02-11T08:24:17.646Z,1012.50
2017-02-11T08:25:18.176Z,1012.56
2017-02-11T08:26:18.710Z,1012.53
2017-02-11T08:27:19.244Z,1012.52
2017-02-11T08:28:19.768Z,1012.48
2017-02-11T08:29:20.302Z,1012.50
2017-02-11T08:30:20.841Z,1012.48
2017-02-11T08:31:21.506Z,1012.52
2017-02-11T08:32:21.887Z,1012.49
2017-02-11T08:33:22.423Z,1012.57
2017-02-11T08:34:22.956Z,1012.51
2017-02-11T08:35:23.486Z,1012.51
2017-02-11T08:36:24.171Z,1012.54
2017-02-11T08:37:24.557Z,1012.51
2017-02-11T08:38:25.081Z,1012.51
2017-02-11T08:39:25.612Z,1012.58
2017-02-11T08:40:26.146Z,1012.57
2017-02-11T08:41:26.671Z,1012.51
2017-02-11T08:42:27.197Z,1012.56
2017-02-11T08:43:27.732Z,1012.61
2017-02-11T08:44:28.411Z,1012.58
2017-02-11T08:45:28.798Z,1012.61
2017-02-11T08:46:29.321Z,1012.64
2017-02-11T08:47:29.999Z,1012.57
2017-02-11T08:48:30.547Z,1012.57
2017-02-11T08:49:30.915Z,1012.59
2017-02-11T08:50:31.444Z,1012.48
2017-02-11T08:51:31.974Z,1012.56
2017-02-11T08:52:32.659Z,1012.54
2017-02-11T08:53:33.045Z,1012.54
2017-02-11T08:54:33.584Z,1012.55
2017-02-11T08:55:34.115Z,1012.50
2017-02-11T08:56:34.650Z,1012.50
2017-02-11T08:57:35.187Z,1012.52
2017-02-11T08:58:35.714Z,1012.53
2017-02-11T08:59:36.249Z,1012.52
2017-02-11T09:00:36.783Z,1012.57
2017-02-11T09:01:37.307Z,1012.57
2017-02-11T09:02:38.014Z,1012.55
2017-02-11T09:03:38.370Z,1012.60
2017-02-11T09:04:38.900Z,1012.60
2017-02-11T09:05:39.426Z,1012.61
2017-02-11T09:06:39.955Z,1012.59
2017-02-11T09:07:40.486Z,1012.61
2017-02-11T09:08:41.019Z,1012.55
2017-02-11T09:09:41.559Z,1012.53
2017-02-11T09:10:42.078Z,1012.50
2017-02-11T09:11:42.613Z,1012.56
2017-02-11T09:12:43.285Z,1012.50
2017-02-11T09:13:43.671Z,1012.59
2017-02-11T09:15:44.730Z,1012.58
2017-02-11T09:16:45.256Z,1012.60
2017-02-11T09:17:45.803Z,1012.60
2017-02-11T09:18:46.319Z,1012.59
2017-02-11T09:19:46.855Z,1012.55
2017-02-11T09:20:47.417Z,1012.58
2017-02-11T09:21:48.060Z,1012.53
2017-02-11T09:22:48.456Z,1012.55
2017-02-11T09:23:48.975Z,1012.52
2017-02-11T09:24:49.527Z,1012.52
2017-02-11T09:25:50.038Z,1012.47
2017-02-11T09:26:50.573Z,1012.42
2017-02-11T09:27:51.247Z,1012.48
2017-02-11T09:28:51.641Z,1012.48
2017-02-11T09:29:52.159Z,1012.43
2017-02-11T09:30:52.687Z,1012.39
2017-02-11T09:31:53.221Z,1012.43
2017-02-11T09:32:53.901Z,1012.37
2017-02-11T09:33:54.288Z,1012.40
2017-02-11T09:34:54.964Z,1012.40
2017-02-11T09:35:55.356Z,1012.36
2017-02-11T09:36:55.883Z,1012.34
2017-02-11T09:37:56.422Z,1012.38
2017-02-11T09:38:56.955Z,1012.35
2017-02-11T09:39:57.638Z,1012.39
2017-02-11T09:40:58.037Z,1012.34
2017-02-11T09:41:58.559Z,1012.38
2017-02-11T09:42:59.086Z,1012.35
2017-02-11T09:43:59.621Z,1012.33
2017-02-11T09:45:00.148Z,1012.35
2017-02-11T09:46:00.827Z,1012.28
2017-02-11T09:47:01.210Z,1012.29
2017-02-11T09:48:01.743Z,1012.30
2017-02-11T09:49:02.285Z,1012.25
2017-02-11T09:50:02.804Z,1012.22
2017-02-11T09:51:03.333Z,1012.29
2017-02-11T09:52:03.868Z,1012.30
2017-02-11T09:53:04.548Z,1012.35
2017-02-11T09:54:04.929Z,1012.30
2017-02-11T09:55:05.608Z,1012.38
2017-02-11T09:56:05.993Z,1012.37
2017-02-11T09:57:06.523Z,1012.37
2017-02-11T09:58:07.051Z,1012.32
2017-02-11T09:59:07.729Z,1012.35
2017-02-11T10:00:08.111Z,1012.39
2017-02-11T10:01:08.643Z,1012.41
2017-02-11T10:02:09.172Z,1012.40
2017-02-11T10:03:09.858Z,1012.39
2017-02-11T10:04:10.234Z,1012.35
2017-02-11T10:05:10.765Z,1012.42
2017-02-11T10:06:11.439Z,1012.39
2017-02-11T10:07:11.821Z,1012.33
2017-02-11T10:08:12.500Z,1012.38
2017-02-11T10:09:12.903Z,1012.42
2017-02-11T10:10:13.413Z,1012.44
2017-02-11T10:11:13.945Z,1012.40
2017-02-11T10:12:14.474Z,1012.42
2017-02-11T10:13:15.020Z,1012.55
2017-02-11T10:14:15.539Z,1012.54
2017-02-11T10:15:16.067Z,1012.55
2017-02-11T10:16:16.747Z,1012.53
2017-02-11T10:17:17.134Z,1012.54
2017-02-11T10:18:17.669Z,1012.51
2017-02-11T10:19:18.200Z,1012.56
2017-02-11T10:21:19.268Z,1012.57
2017-02-11T10:22:19.803Z,1012.55
2017-02-11T10:23:20.483Z,1012.56
2017-02-11T10:24:21.009Z,1012.56
2017-02-11T10:25:21.546Z,1012.59
2017-02-11T10:26:21.929Z,1012.60
2017-02-11T10:27:22.458Z,1012.61
2017-02-11T10:28:22.990Z,1012.60
2017-02-11T10:29:23.515Z,1012.61
2017-02-11T10:30:24.046Z,1012.61
2017-02-11T10:31:24.615Z,1012.62
2017-02-11T10:32:25.114Z,1012.55
2017-02-11T10:33:25.678Z,1012.66
2017-02-11T10:34:26.175Z,1012.66
2017-02-11T10:35:26.706Z,1012.65
2017-02-11T10:36:27.236Z,1012.65
2017-02-11T10:37:27.915Z,1012.60
2017-02-11T10:38:28.443Z,1012.59
2017-02-11T10:39:28.827Z,1012.59
2017-02-11T10:40:29.360Z,1012.62
2017-02-11T10:41:29.890Z,1012.59
2017-02-11T10:42:30.419Z,1012.58
2017-02-11T10:43:30.952Z,1012.52
2017-02-11T10:44:31.781Z,1012.58
2017-02-11T10:45:32.010Z,1012.51
2017-02-11T10:46:32.540Z,1012.52
2017-02-11T10:47:33.074Z,1012.51
2017-02-11T10:48:33.600Z,1012.41
2017-02-11T10:49:34.130Z,1012.41
2017-02-11T10:50:34.664Z,1012.42
2017-02-11T10:51:35.202Z,1012.48
2017-02-11T10:52:35.723Z,1012.43
2017-02-11T10:53:36.257Z,1012.49
2017-02-11T10:54:36.927Z,1012.43
2017-02-11T10:55:37.309Z,1012.48
2017-02-11T10:56:37.846Z,1012.40
2017-02-11T10:57:38.376Z,1012.43
2017-02-11T10:58:38.907Z,1012.43
2017-02-11T10:59:39.439Z,1012.44
2017-02-11T11:00:40.005Z,1012.39
2017-02-11T11:01:40.517Z,1012.36
2017-02-11T11:02:41.045Z,1012.42
2017-02-11T11:03:41.726Z,1012.41
2017-02-11T11:04:42.112Z,1012.38
2017-02-11T11:05:42.641Z,1012.42
2017-02-11T11:06:43.170Z,1012.42
2017-02-11T11:07:43.853Z,1012.34
2017-02-11T11:08:44.235Z,1012.37
2017-02-11T11:09:44.767Z,1012.30
2017-02-11T11:10:45.298Z,1012.38
2017-02-11T11:11:45.972Z,1012.33
2017-02-11T11:12:46.358Z,1012.38
2017-02-11T11:13:47.039Z,1012.34
2017-02-11T11:14:47.423Z,1012.35
2017-02-11T11:15:47.988Z,1012.37
2017-02-11T11:16:48.482Z,1012.36
2017-02-11T11:17:49.014Z,1012.34
2017-02-11T11:18:49.545Z,1012.42
2017-02-11T11:19:50.086Z,1012.39
2017-02-11T11:20:50.604Z,1012.41
2017-02-11T11:21:51.132Z,1012.33
2017-02-11T11:22:51.745Z,1012.38
2017-02-11T11:23:52.194Z,1012.42
2017-02-11T11:24:52.872Z,1012.41
2017-02-11T11:25:53.407Z,1012.38
2017-02-11T11:26:53.935Z,1012.42
2017-02-11T11:27:54.321Z,1012.37
2017-02-11T11:28:54.847Z,1012.37
2017-02-11T11:29:55.401Z,1012.33
2017-02-11T11:30:55.910Z,1012.39
2017-02-11T11:31:56.587Z,1012.38
2017-02-11T11:32:56.973Z,1012.35
2017-02-11T11:33:57.496Z,1012.35
2017-02-11T11:34:58.032Z,1012.33
2017-02-11T11:35:58.561Z,1012.34
2017-02-11T11:36:59.095Z,1012.27
2017-02-11T11:37:59.661Z,1012.32
2017-02-11T11:39:00.299Z,1012.28
2017-02-11T11:40:00.836Z,1012.28
2017-02-11T11:41:01.215Z,1012.28
2017-02-11T11:42:01.750Z,1012.23
2017-02-11T11:43:02.288Z,1012.22
2017-02-11T11:44:02.820Z,1012.18
2017-02-11T11:45:03.351Z,1012.22
2017-02-11T11:46:03.884Z,1012.17
2017-02-11T11:47:04.412Z,1012.18
2017-02-11T11:48:05.097Z,1012.14
2017-02-11T11:49:05.478Z,1012.12
2017-02-11T11:50:06.033Z,1012.14
2017-02-11T11:51:06.540Z,1012.12
2017-02-11T11:52:07.068Z,1012.13
2017-02-11T11:53:07.597Z,1012.15
2017-02-11T11:54:08.277Z,1012.13
2017-02-11T11:55:08.659Z,1012.07
2017-02-11T11:56:09.192Z,1012.09
2017-02-11T11:57:09.724Z,1012.09
2017-02-11T11:58:10.403Z,1012.08
2017-02-11T11:59:10.785Z,1012.13
2017-02-11T12:00:11.460Z,1012.07
2017-02-11T12:01:11.846Z,1012.09
2017-02-11T12:02:12.523Z,1012.09
2017-02-11T12:03:13.053Z,1012.06
2017-02-11T12:04:13.582Z,1012.14
2017-02-11T12:05:13.965Z,1012.17
2017-02-11T12:06:14.531Z,1012.10
2017-02-11T12:07:15.028Z,1012.10
2017-02-11T12:08:15.561Z,1012.09
2017-02-11T12:09:16.093Z,1012.08
2017-02-11T12:10:16.617Z,1012.07
2017-02-11T12:11:17.162Z,1012.10
2017-02-11T12:12:17.828Z,1012.08
2017-02-11T12:13:18.213Z,1012.06
2017-02-11T12:14:18.743Z,1012.06